createdAt,value
2019-04-23T00:01:08.029Z,96316.22
2019-04-23T00:06:06.998Z,96318.42
2019-04-23T00:11:00.362Z,96311.06
2019-04-23T00:16:03.125Z,96314.06
2019-04-23T00:20:58.053Z,96304.72
2019-04-23T00:35:55.519Z,96333.41
2019-04-23T00:40:58.241Z,96336.08
2019-04-23T00:46:11.379Z,96326.09
2019-04-23T00:56:03.957Z,96321.08
2019-04-23T01:01:04.371Z,96321.72
2019-04-23T01:10:52.022Z,96322.38
2019-04-23T01:15:53.197Z,96320.72
2019-04-23T01:20:51.809Z,96320.99
2019-04-23T01:25:43.668Z,96316.48
2019-04-23T01:31:02.572Z,96298.34
2019-04-23T01:45:50.192Z,96295.20
2019-04-23T01:50:55.084Z,96304.15
2019-04-23T01:55:51.409Z,96303.64
2019-04-23T02:05:48.199Z,96305.36
2019-04-23T02:10:56.297Z,96298.34
2019-04-23T02:15:47.438Z,96302.83
2019-04-23T02:20:47.791Z,96307.50
2019-04-23T02:25:50.180Z,96305.30
2019-04-23T02:41:03.678Z,96303.87
2019-04-23T02:46:02.425Z,96302.23
2019-04-23T02:50:43.976Z,96305.61
2019-04-23T02:56:01.794Z,96301.88
2019-04-23T03:01:14.888Z,96306.05
2019-04-23T03:05:51.046Z,96309.91
2019-04-23T03:11:01.370Z,96305.45
2019-04-23T03:16:04.156Z,96307.57
2019-04-23T03:26:25.787Z,96313.59
2019-04-23T03:32:52.606Z,96318.45
2019-04-23T03:41:29.998Z,96325.23
2019-04-23T03:46:24.300Z,96328.48
2019-04-23T03:51:11.718Z,96328.09
2019-04-23T03:56:10.913Z,96333.33
2019-04-23T04:01:19.702Z,96326.28
2019-04-23T04:06:20.850Z,96337.28
2019-04-23T04:11:11.145Z,96346.63
2019-04-23T04:21:18.476Z,96346.73
2019-04-23T04:26:14.295Z,96349.70
2019-04-23T04:31:03.183Z,96354.03
2019-04-23T04:41:05.681Z,96352.98
2019-04-23T04:51:13.718Z,96356.63
2019-04-23T04:56:20.918Z,96352.92
2019-04-23T05:11:07.733Z,96360.69
2019-04-23T05:15:53.775Z,96364.08
2019-04-23T05:20:58.644Z,96356.38
2019-04-23T05:25:51.326Z,96358.09
2019-04-23T05:30:54.902Z,96356.13
2019-04-23T05:36:09.001Z,96363.70
2019-04-23T05:45:46.816Z,96364.23
2019-04-23T05:50:50.607Z,96362.08
2019-04-23T05:55:54.031Z,96355.16
2019-04-23T06:00:59.626Z,96355.88
2019-04-23T06:05:48.092Z,96352.63
2019-04-23T06:10:54.180Z,96358.44
2019-04-23T06:15:59.578Z,96358.37
2019-04-23T06:20:54.275Z,96362.00
2019-04-23T06:26:10.107Z,96357.77
2019-04-23T06:30:50.486Z,96351.99
2019-04-23T06:35:47.359Z,96354.25
2019-04-23T06:40:42.195Z,96362.38
2019-04-23T06:45:57.521Z,96353.65
2019-04-23T06:50:51.127Z,96361.59
2019-04-23T06:55:45.317Z,96365.42
2019-04-23T07:00:41.924Z,96359.30
2019-04-23T07:06:11.954Z,96368.88
2019-04-23T07:11:07.861Z,96368.23
2019-04-23T07:16:03.428Z,96369.91
2019-04-23T07:21:09.817Z,96368.99
2019-04-23T07:26:13.869Z,96364.36
2019-04-23T07:31:21.263Z,96362.27
2019-04-23T07:36:21.115Z,96361.53
2019-04-23T07:41:43.271Z,96367.87
2019-04-23T07:47:07.755Z,96380.42
2019-04-23T07:51:54.702Z,96379.13
2019-04-23T07:56:53.356Z,96376.93
2019-04-23T08:01:51.131Z,96388.69
2019-04-23T08:06:45.954Z,96381.89
2019-04-23T08:12:02.661Z,96383.76
2019-04-23T08:16:58.143Z,96383.77
2019-04-23T08:21:45.947Z,96375.92
2019-04-23T08:26:52.050Z,96387.82
2019-04-23T08:31:50.377Z,96382.75
2019-04-23T08:36:48.650Z,96373.09
2019-04-23T08:41:59.394Z,96375.78
2019-04-23T08:47:03.632Z,96367.83
2019-04-23T08:52:00.593Z,96369.10
2019-04-23T08:57:02.738Z,96365.80
2019-04-23T09:02:09.304Z,96356.20
2019-04-23T09:07:04.933Z,96347.22
2019-04-23T09:12:14.748Z,96351.48
2019-04-23T09:17:03.114Z,96353.27
2019-04-23T09:22:00.551Z,96352.24
2019-04-23T09:26:58.654Z,96347.98
2019-04-23T09:32:14.806Z,96342.54
2019-04-23T09:37:04.704Z,96332.11
2019-04-23T09:42:14.732Z,96333.69
2019-04-23T09:47:33.993Z,96339.75
2019-04-23T09:52:30.922Z,96333.59
2019-04-23T09:57:24.654Z,96327.54
2019-04-23T10:02:17.530Z,96321.63
2019-04-23T10:07:12.623Z,96324.38
2019-04-23T10:12:00.968Z,96308.89
2019-04-23T10:16:58.183Z,96311.32
2019-04-23T10:21:55.557Z,96307.11
2019-04-23T10:26:52.877Z,96293.23
2019-04-23T10:31:51.494Z,96292.09
2019-04-23T10:36:49.495Z,96284.97
2019-04-23T10:41:48.276Z,96295.10
2019-04-23T10:47:30.142Z,96296.52
2019-04-23T10:57:26.482Z,96291.28
2019-04-23T11:02:43.175Z,96293.42
2019-04-23T11:07:32.475Z,96279.25
2019-04-23T11:17:38.435Z,96277.48
2019-04-23T11:22:42.624Z,96283.31
2019-04-23T11:27:39.192Z,96270.43
2019-04-23T11:38:12.373Z,96260.78
2019-04-23T11:42:42.640Z,96270.45
2019-04-23T11:48:14.687Z,96249.09
2019-04-23T11:52:44.672Z,96251.84
2019-04-23T11:57:41.229Z,96240.86
2019-04-23T12:02:46.602Z,96244.98
2019-04-23T12:07:46.667Z,96237.87
2019-04-23T12:12:39.632Z,96226.63
2019-04-23T12:22:57.502Z,96235.64
2019-04-23T12:37:55.483Z,96198.16
2019-04-23T12:43:04.618Z,96201.80
2019-04-23T12:52:51.044Z,96182.62
2019-04-23T12:57:57.396Z,96201.18
2019-04-23T13:02:48.525Z,96173.44
2019-04-23T13:07:55.505Z,96175.78
2019-04-23T13:17:55.846Z,96168.95
2019-04-23T13:22:57.975Z,96176.34
2019-04-23T13:28:02.931Z,96158.70
2019-04-23T13:32:59.038Z,96165.01
2019-04-23T13:42:52.609Z,96153.74
2019-04-23T13:58:08.852Z,96147.25
2019-04-23T14:02:51.324Z,96142.63
2019-04-23T14:07:54.510Z,96141.97
2019-04-23T14:13:08.827Z,96145.03
2019-04-23T14:18:16.121Z,96143.61
2019-04-23T14:23:08.661Z,96135.86
2019-04-23T14:28:11.923Z,96132.28
2019-04-23T14:33:03.668Z,96128.50
2019-04-23T14:38:15.896Z,96113.93
2019-04-23T14:43:15.011Z,96129.09
2019-04-23T14:48:03.976Z,96123.41
2019-04-23T14:53:06.368Z,96124.98
2019-04-23T15:02:59.105Z,96136.35
2019-04-23T15:07:58.009Z,96126.19
2019-04-23T15:12:59.673Z,96131.18
2019-04-23T15:18:01.806Z,96135.84
2019-04-23T15:23:13.893Z,96133.96
2019-04-23T15:38:20.733Z,96131.81
2019-04-23T15:43:04.759Z,96140.31
2019-04-23T15:53:01.310Z,96137.84
2019-04-23T15:58:15.674Z,96125.88
2019-04-23T16:02:34.127Z,96129.64
2019-04-23T16:07:50.523Z,96129.91
2019-04-23T16:13:02.938Z,96122.66
2019-04-23T16:18:14.018Z,96132.41
2019-04-23T16:23:06.959Z,96124.88
2019-04-23T16:28:12.903Z,96122.28
2019-04-23T16:38:26.738Z,96122.92
2019-04-23T16:43:08.928Z,96124.82
2019-04-23T16:48:16.006Z,96124.62
2019-04-23T16:53:11.243Z,96137.28
2019-04-23T16:58:22.187Z,96143.28
2019-04-23T17:03:28.746Z,96141.41
2019-04-23T17:08:37.700Z,96136.09
2019-04-23T17:13:20.325Z,96143.68
2019-04-23T17:18:16.789Z,96145.16
2019-04-23T17:23:34.583Z,96139.53
2019-04-23T17:28:23.021Z,96145.20
2019-04-23T17:38:53.250Z,96156.52
2019-04-23T17:44:00.273Z,96162.58
2019-04-23T17:48:47.940Z,96159.33
2019-04-23T17:58:51.431Z,96164.62
2019-04-23T18:08:51.067Z,96172.23
2019-04-23T18:13:48.417Z,96174.30
2019-04-23T18:18:56.775Z,96189.30
2019-04-23T18:24:13.341Z,96185.23
2019-04-23T18:29:13.118Z,96195.26
2019-04-23T18:38:59.777Z,96200.41
2019-04-23T18:44:06.033Z,96190.17
2019-04-23T18:48:53.202Z,96191.31
2019-04-23T18:53:53.020Z,96199.41
2019-04-23T19:09:13.077Z,96207.42
2019-04-23T19:14:11.095Z,96213.33
2019-04-23T19:19:11.027Z,96203.09
2019-04-23T19:24:09.424Z,96201.19
2019-04-23T19:29:12.979Z,96210.72
2019-04-23T19:39:11.038Z,96202.35
2019-04-23T19:44:08.386Z,96196.38
2019-04-23T19:59:02.189Z,96196.80
2019-04-23T20:04:23.644Z,96193.67
2019-04-23T20:14:22.012Z,96203.94
2019-04-23T20:19:03.122Z,96211.04
2019-04-23T20:24:08.445Z,96209.23
2019-04-23T20:29:23.391Z,96206.53
2019-04-23T20:44:14.290Z,96207.19
2019-04-23T20:49:08.166Z,96207.40
2019-04-23T20:54:08.758Z,96207.27
2019-04-23T20:59:03.402Z,96212.87
2019-04-23T21:04:13.958Z,96213.09
2019-04-23T21:19:15.159Z,96212.98
2019-04-23T21:24:07.152Z,96216.16
2019-04-23T21:29:04.121Z,96216.27
2019-04-23T21:54:07.925Z,96215.05
2019-04-23T21:59:06.925Z,96210.98
2019-04-23T22:09:12.659Z,96198.14
2019-04-23T22:14:10.341Z,96193.59
2019-04-23T22:24:12.453Z,96198.41
2019-04-23T22:29:26.151Z,96200.51
2019-04-23T22:34:17.271Z,96203.00
2019-04-23T22:39:09.739Z,96201.38
2019-04-23T22:44:09.439Z,96210.30
2019-04-23T22:49:33.516Z,96210.46
2019-04-23T22:54:24.219Z,96209.18
2019-04-23T23:04:48.930Z,96202.03
2019-04-23T23:09:33.459Z,96209.09
2019-04-23T23:19:33.794Z,96206.06
2019-04-23T23:24:30.814Z,96203.27
2019-04-23T23:29:19.675Z,96198.17
2019-04-23T23:34:32.706Z,96198.17
2019-04-23T23:39:29.245Z,96194.76
2019-04-23T23:44:38.615Z,96193.83
2019-04-23T23:49:28.057Z,96181.99
2019-04-23T23:54:17.653Z,96189.66
2019-04-23T23:59:26.818Z,96191.02
